»·PEaware :: N244TB KHAF-KSQL

N244TB :: KHAF-KSQL

FLIGHT INFORMATION

Flight Status: Arrived
Operator: Privately registered:
United States
More flights under this callsign
Pilot: Anonymous 5619 (5619)
Aircraft: CESSNA 172 SKYHAWK
(C172)
More flights by this aircraft type
Origin: KHAF Half Moon Bay
United States
Destination: KSQL San Carlos
United States
More flights between these airports :: More routes between these airports
Route: +OSI
File this flight plan on PilotEdge
Remarks: +CW / Zulu Wx to simulate IMC Hard IFR
Altitude:
(Current/Filed)
3,000ft
Speed:
(Current/Filed)
110kts
Departed: 15-Jan-20 01:04 PM
Arrived: 15-Jan-20 01:36 PM
Distance/Time
Traveled:
12nm/0:31
Distance/Time
To Go:
Arrived

Flight Plot

Page will automatically refresh every two minutes.

Flight plan parsing failed; only flown route is shown


Map Options




Map Legend


Flown Route
Filed Route
Departure Airport
Arrival Airport
Navaid (VOR, NDB)
Fix

Horizontal Profiles

Position Reports

Time Latitude Longitude Heading Altitude Ground
Speed
15-Jan-20 12:19 37.513854 -122.495478 124 44ft 0kts
15-Jan-20 12:20 37.513854 -122.495478 124 44ft 0kts
15-Jan-20 12:21 37.513854 -122.495478 124 44ft 0kts
15-Jan-20 12:22 37.513854 -122.495478 124 44ft 0kts
15-Jan-20 12:23 37.513854 -122.495478 124 44ft 0kts
15-Jan-20 12:24 37.513854 -122.495478 124 44ft 0kts
15-Jan-20 12:25 37.513854 -122.495478 124 44ft 0kts
15-Jan-20 12:26 37.513854 -122.495478 124 44ft 0kts
15-Jan-20 12:27 37.513854 -122.495478 124 44ft 0kts
15-Jan-20 12:28 37.513854 -122.495478 124 44ft 0kts
15-Jan-20 12:29 37.513854 -122.495478 124 44ft 0kts
15-Jan-20 12:30 37.513854 -122.495478 124 44ft 0kts
15-Jan-20 12:31 37.513854 -122.495478 124 44ft 0kts
15-Jan-20 12:32 37.513854 -122.495478 124 44ft 0kts
15-Jan-20 12:33 37.513854 -122.495478 124 44ft 0kts
15-Jan-20 12:34 37.513854 -122.495478 124 44ft 0kts
15-Jan-20 12:35 37.513854 -122.495478 124 44ft 0kts
15-Jan-20 12:36 37.513854 -122.495478 124 44ft 0kts
15-Jan-20 12:37 37.513854 -122.495478 124 44ft 0kts
15-Jan-20 12:38 37.513854 -122.495478 124 44ft 0kts
15-Jan-20 12:39 37.513854 -122.495478 124 44ft 0kts
15-Jan-20 12:40 37.513854 -122.495478 124 44ft 0kts
15-Jan-20 12:41 37.513854 -122.495478 124 44ft 0kts
15-Jan-20 12:42 37.513854 -122.495478 124 44ft 0kts
15-Jan-20 12:43 37.513854 -122.495478 124 44ft 0kts
15-Jan-20 12:44 37.513854 -122.495478 124 44ft 0kts
15-Jan-20 12:45 37.513854 -122.495478 124 44ft 0kts
15-Jan-20 12:46 37.513854 -122.495478 124 44ft 0kts
15-Jan-20 12:47 37.513854 -122.495478 124 44ft 0kts
15-Jan-20 12:48 37.513854 -122.495478 124 44ft 0kts
15-Jan-20 12:49 37.513637 -122.496398 304 44ft 5kts
15-Jan-20 12:50 37.515933 -122.500492 305 49ft 37kts
15-Jan-20 12:51 37.523413 -122.510264 332 66ft 12kts
15-Jan-20 12:52 37.520981 -122.507381 138 73ft 21kts
15-Jan-20 12:53 37.519781 -122.506036 136 66ft 0kts
15-Jan-20 12:54 37.519780 -122.506036 136 66ft 0kts
15-Jan-20 12:55 37.519780 -122.506036 136 66ft 0kts
15-Jan-20 12:56 37.519780 -122.506036 136 66ft 0kts
15-Jan-20 12:57 37.519780 -122.506036 136 66ft 0kts
15-Jan-20 12:58 37.519780 -122.506036 136 66ft 0kts
15-Jan-20 12:59 37.519780 -122.506036 136 66ft 0kts
15-Jan-20 13:00 37.519780 -122.506036 136 66ft 0kts
15-Jan-20 13:01 37.517647 -122.506118 135 63ft 0kts
15-Jan-20 13:02 37.517342 -122.505720 135 62ft 30kts
15-Jan-20 13:03 37.503332 -122.485855 133 908ft 83kts
15-Jan-20 13:04 37.487117 -122.465247 137 1888ft 83kts
15-Jan-20 13:05 37.471231 -122.445669 137 2818ft 80kts
15-Jan-20 13:06 37.458428 -122.422837 119 3643ft 81kts
15-Jan-20 13:07 37.446966 -122.398305 121 4402ft 82kts
15-Jan-20 13:08 37.435356 -122.373348 122 5114ft 83kts
15-Jan-20 13:17 37.408054 -122.364033 95 3930ft 81kts
15-Jan-20 13:18 37.403832 -122.335907 101 4684ft 82kts
15-Jan-20 13:19 37.398431 -122.307791 102 5392ft 83kts
15-Jan-20 13:20 37.391168 -122.279720 125 5930ft 100kts
15-Jan-20 13:21 37.369414 -122.247436 130 5147ft 125kts
15-Jan-20 13:22 37.349019 -122.217501 130 5072ft 107kts
15-Jan-20 13:23 37.329508 -122.188897 130 5072ft 107kts
15-Jan-20 13:24 37.310076 -122.160448 130 5072ft 107kts
15-Jan-20 13:25 37.314048 -122.127135 51 4878ft 113kts
15-Jan-20 13:26 37.333083 -122.102776 43 4504ft 90kts
15-Jan-20 13:27 37.354958 -122.077559 42 4124ft 132kts
15-Jan-20 13:28 37.386988 -122.080733 318 3543ft 135kts
15-Jan-20 13:29 37.413305 -122.114907 312 2827ft 137kts
15-Jan-20 13:30 37.437763 -122.148403 312 2112ft 136kts
15-Jan-20 13:31 37.456988 -122.174775 312 1547ft 135kts
15-Jan-20 13:32 37.472417 -122.195959 312 1099ft 133kts
15-Jan-20 13:33 37.492566 -122.223000 318 534ft 93kts
15-Jan-20 13:34 37.503359 -122.239966 317 224ft 73kts
15-Jan-20 13:35 37.513188 -122.251048 317 7ft 10kts
15-Jan-20 13:36 37.513195 -122.251667 225 7ft 0kts
15-Jan-20 13:37 37.513195 -122.251667 225 7ft 0kts
15-Jan-20 13:38 37.513195 -122.251668 225 7ft 0kts

Navigation Log

Ident Type
Flight plan parsing failed, navigation log unavailable